Time;durP1;ratioP1;P1;durP2;ratioP2;P2;SDS_P1;SDS_P2;PMS_P1;PMS_P2;Temp;Humidity;BMP_temperature;BMP_pressure;BME280_temperature;BME280_humidity;BME280_pressure;Samples;Min_cycle;Max_cycle;Signal;HPM_P1;HPM_P2
2022/04/25 00:01:37;;;;;;;15.50;7.15;;;;;;;;;;5073157;28;20500;-40
2022/04/25 00:04:03;;;;;;;15.52;7.00;;;;;;;;;;5073185;28;20016;-38
2022/04/25 00:06:29;;;;;;;20.52;4.95;;;;;;;;;;5073211;28;20074;-40
2022/04/25 00:08:56;;;;;;;19.35;9.35;;;;;;;;;;5073096;28;20112;-42
2022/04/25 00:11:22;;;;;;;10.60;4.13;;;;;;;;;;5073281;28;20032;-39
2022/04/25 00:13:52;;;;;;;20.50;10.68;;;;;;;;;;5072743;28;20031;-40
2022/04/25 00:16:19;;;;;;;14.05;5.05;;;;;;;;;;5075470;28;20032;-40
2022/04/25 00:18:47;;;;;;;15.20;4.85;;;;;;;;;;5076796;28;20025;-40
2022/04/25 00:21:13;;;;;;;13.05;4.43;;;;;;;;;;5076430;28;20079;-41
2022/04/25 00:23:39;;;;;;;16.40;4.03;;;;;;;;;;5076706;28;20112;-39
2022/04/25 00:26:09;;;;;;;10.63;3.67;;;;;;;;;;5076642;28;20062;-38
2022/04/25 00:28:35;;;;;;;8.30;3.97;;;;;;;;;;5076444;28;20052;-40
2022/04/25 00:31:01;;;;;;;13.25;4.35;;;;;;;;;;5076364;28;20032;-39
2022/04/25 00:33:27;;;;;;;14.52;5.03;;;;;;;;;;5075107;28;20388;-39
2022/04/25 00:35:53;;;;;;;14.00;5.55;;;;;;;;;;5076405;28;20104;-39
2022/04/25 00:38:19;;;;;;;13.50;4.28;;;;;;;;;;5076412;28;20424;-40
2022/04/25 00:40:46;;;;;;;12.52;5.85;;;;;;;;;;5076263;28;20082;-40
2022/04/25 00:43:12;;;;;;;13.23;6.57;;;;;;;;;;5076205;28;20051;-39
2022/04/25 00:45:39;;;;;;;14.60;6.10;;;;;;;;;;5076310;28;20020;-39
2022/04/25 00:48:05;;;;;;;14.52;5.38;;;;;;;;;;5076310;28;20033;-39
2022/04/25 00:50:31;;;;;;;20.23;8.48;;;;;;;;;;5075762;28;20056;-40
2022/04/25 00:52:58;;;;;;;14.90;5.82;;;;;;;;;;5076127;28;20028;-39
2022/04/25 00:55:26;;;;;;;12.23;5.13;;;;;;;;;;5075784;28;20040;-41
2022/04/25 00:57:54;;;;;;;17.00;5.82;;;;;;;;;;5076022;28;20027;-42
2022/04/25 01:00:20;;;;;;;14.90;4.15;;;;;;;;;;5075794;28;20031;-39
2022/04/25 01:02:47;;;;;;;11.60;4.80;;;;;;;;;;5075853;28;20082;-39
2022/04/25 01:05:13;;;;;;;17.52;6.97;;;;;;;;;;5076010;28;20036;-39
2022/04/25 01:07:39;;;;;;;13.93;7.10;;;;;;;;;;5075771;28;20027;-39
2022/04/25 01:10:06;;;;;;;13.13;5.07;;;;;;;;;;5075650;28;20082;-40
2022/04/25 01:12:32;;;;;;;9.90;4.05;;;;;;;;;;5075523;28;20016;-39
2022/04/25 01:15:04;;;;;;;13.98;4.97;;;;;;;;;;5075538;28;20033;-39
2022/04/25 01:17:30;;;;;;;;;;;;;;;;;;5076084;28;20021;-40
2022/04/25 01:19:56;;;;;;;12.77;4.40;;;;;;;;;;5075501;28;20261;-39
2022/04/25 01:22:25;;;;;;;9.55;4.03;;;;;;;;;;5074476;28;20032;-39
2022/04/25 01:27:36;;;;;;;17.77;7.40;;;;;;;;;;5074419;28;20089;-40
2022/04/25 01:30:09;;;;;;;15.00;6.85;;;;;;;;;;5075473;28;20066;-39
2022/04/25 01:32:36;;;;;;;15.52;5.20;;;;;;;;;;5075759;28;20032;-39
2022/04/25 01:35:02;;;;;;;13.45;4.85;;;;;;;;;;5075158;28;20104;-41
2022/04/25 01:37:28;;;;;;;13.73;5.85;;;;;;;;;;5075469;28;20074;-41
2022/04/25 01:39:55;;;;;;;13.15;5.07;;;;;;;;;;5068279;28;20028;-40
2022/04/25 01:42:22;;;;;;;15.10;4.65;;;;;;;;;;5055353;28;20064;-42
2022/04/25 01:44:48;;;;;;;11.57;5.05;;;;;;;;;;5055293;28;20021;-42
2022/04/25 01:47:15;;;;;;;14.00;5.53;;;;;;;;;;5055043;28;20461;-41
2022/04/25 01:49:41;;;;;;;11.73;4.70;;;;;;;;;;5054917;28;20568;-41
2022/04/25 01:52:12;;;;;;;8.93;4.57;;;;;;;;;;5054862;28;20039;-41
2022/04/25 01:54:38;;;;;;;15.85;7.05;;;;;;;;;;5054665;28;20480;-41
2022/04/25 01:57:04;;;;;;;10.88;4.68;;;;;;;;;;5054955;28;20048;-42
2022/04/25 01:59:33;;;;;;;13.77;5.22;;;;;;;;;;5054886;28;20024;-42
2022/04/25 02:02:01;;;;;;;7.90;3.78;;;;;;;;;;5054661;28;20107;-43
2022/04/25 02:04:28;;;;;;;10.60;3.95;;;;;;;;;;5054845;28;20021;-43
2022/04/25 02:06:54;;;;;;;12.05;4.15;;;;;;;;;;5054326;28;20021;-42
2022/04/25 02:09:21;;;;;;;12.13;4.75;;;;;;;;;;5054331;28;20025;-42
2022/04/25 02:11:47;;;;;;;11.27;4.43;;;;;;;;;;5054808;28;20037;-41
2022/04/25 02:14:14;;;;;;;14.48;5.00;;;;;;;;;;5054536;28;20029;-39
2022/04/25 02:16:40;;;;;;;15.77;4.18;;;;;;;;;;5054600;28;20036;-40
2022/04/25 02:19:07;;;;;;;8.52;4.05;;;;;;;;;;5054599;28;20032;-41
2022/04/25 02:21:33;;;;;;;13.80;5.50;;;;;;;;;;5054220;28;20033;-40
2022/04/25 02:24:00;;;;;;;13.63;4.97;;;;;;;;;;5054122;28;20025;-41
2022/04/25 02:26:26;;;;;;;15.55;6.63;;;;;;;;;;5054080;28;20083;-40
2022/04/25 02:28:54;;;;;;;13.30;5.35;;;;;;;;;;5054081;28;20025;-40
2022/04/25 02:31:20;;;;;;;15.52;4.68;;;;;;;;;;5054066;28;20122;-38
2022/04/25 02:33:47;;;;;;;16.20;4.10;;;;;;;;;;5053973;28;20563;-38
2022/04/25 02:36:13;;;;;;;15.50;3.85;;;;;;;;;;5054079;28;20036;-38
2022/04/25 02:38:40;;;;;;;8.68;4.55;;;;;;;;;;5053636;28;20051;-38
2022/04/25 02:41:06;;;;;;;12.90;4.72;;;;;;;;;;5053647;28;20108;-39
2022/04/25 02:43:33;;;;;;;17.17;4.72;;;;;;;;;;5054012;28;20025;-38
2022/04/25 02:45:59;;;;;;;14.38;4.38;;;;;;;;;;5053812;28;20028;-41
2022/04/25 02:48:25;;;;;;;15.32;6.25;;;;;;;;;;5053708;28;20046;-39
2022/04/25 02:50:51;;;;;;;24.20;7.70;;;;;;;;;;5053550;28;20091;-39
2022/04/25 02:53:18;;;;;;;41.58;14.30;;;;;;;;;;5054008;28;20025;-40
2022/04/25 02:55:44;;;;;;;39.78;14.98;;;;;;;;;;5053557;28;20060;-40
2022/04/25 02:58:10;;;;;;;38.95;16.23;;;;;;;;;;5053682;28;20017;-39
2022/04/25 03:00:36;;;;;;;47.33;18.55;;;;;;;;;;5053535;28;20025;-41
2022/04/25 03:03:07;;;;;;;54.38;17.80;;;;;;;;;;5053628;28;20025;-41
2022/04/25 03:05:33;;;;;;;40.20;14.27;;;;;;;;;;5053567;28;20104;-40
2022/04/25 03:07:59;;;;;;;28.42;9.48;;;;;;;;;;5053492;28;20290;-42
2022/04/25 03:10:25;;;;;;;17.02;7.07;;;;;;;;;;5053335;28;20029;-40
2022/04/25 03:12:51;;;;;;;11.93;4.60;;;;;;;;;;5053454;28;20052;-42
2022/04/25 03:15:17;;;;;;;10.50;3.05;;;;;;;;;;5053424;28;20044;-42
2022/04/25 03:17:44;;;;;;;9.35;3.22;;;;;;;;;;5053588;28;20027;-41
2022/04/25 03:20:10;;;;;;;12.10;3.70;;;;;;;;;;5053368;28;20120;-42
2022/04/25 03:22:36;;;;;;;9.77;3.00;;;;;;;;;;5053382;28;20056;-41
2022/04/25 03:25:03;;;;;;;8.57;3.90;;;;;;;;;;5052754;28;20527;-40
2022/04/25 03:27:29;;;;;;;8.23;3.10;;;;;;;;;;5053292;28;20396;-41
2022/04/25 03:29:55;;;;;;;4.97;2.45;;;;;;;;;;5053428;28;20142;-43
2022/04/25 03:32:22;;;;;;;6.53;3.63;;;;;;;;;;5053143;28;20017;-39
2022/04/25 03:34:48;;;;;;;9.65;2.28;;;;;;;;;;5053202;28;20400;-41
2022/04/25 03:37:14;;;;;;;8.55;2.95;;;;;;;;;;5053223;28;20082;-39
2022/04/25 03:39:40;;;;;;;15.20;7.93;;;;;;;;;;5052860;28;20028;-40
2022/04/25 03:42:06;;;;;;;64.40;33.50;;;;;;;;;;5053190;28;20381;-40
2022/04/25 03:44:32;;;;;;;34.28;17.85;;;;;;;;;;5052985;28;20106;-38
2022/04/25 03:46:58;;;;;;;15.38;8.23;;;;;;;;;;5053018;28;20025;-40
2022/04/25 03:49:25;;;;;;;17.13;8.32;;;;;;;;;;5052675;28;20037;-42
2022/04/25 03:51:53;;;;;;;20.38;10.10;;;;;;;;;;5056385;28;20036;-42
2022/04/25 03:57:10;;;;;;;16.15;8.55;;;;;;;;;;5056858;28;20075;-40
2022/04/25 03:57:12;;;;;;;30.05;9.80;;;;;;;;;;5056874;28;20519;-42
2022/04/25 03:59:38;;;;;;;8.82;3.65;;;;;;;;;;5057092;28;20033;-42
2022/04/25 04:02:05;;;;;;;7.75;3.00;;;;;;;;;;5056784;28;20461;-40
2022/04/25 04:04:34;;;;;;;7.70;2.58;;;;;;;;;;5056935;28;20032;-41
2022/04/25 04:07:00;;;;;;;10.05;3.20;;;;;;;;;;5056668;28;20025;-42
2022/04/25 04:12:11;;;;;;;8.65;2.20;;;;;;;;;;5057005;28;20040;-42
2022/04/25 04:14:37;;;;;;;8.85;2.08;;;;;;;;;;5056736;28;20039;-40
2022/04/25 04:17:07;;;;;;;7.38;2.55;;;;;;;;;;5056496;28;20418;-42
2022/04/25 04:19:38;;;;;;;9.32;3.35;;;;;;;;;;5056471;28;20024;-41
2022/04/25 04:22:04;;;;;;;4.72;2.88;;;;;;;;;;5056792;28;20421;-43
2022/04/25 04:24:34;;;;;;;11.90;3.38;;;;;;;;;;5056684;28;20025;-39
2022/04/25 04:27:04;;;;;;;11.45;3.38;;;;;;;;;;5056473;28;20029;-41
2022/04/25 04:29:34;;;;;;;7.82;2.95;;;;;;;;;;5055811;28;20032;-39
2022/04/25 04:32:01;;;;;;;10.77;3.28;;;;;;;;;;5056837;28;20025;-41
2022/04/25 04:34:27;;;;;;;9.30;3.42;;;;;;;;;;5056543;28;20056;-41
2022/04/25 04:36:54;;;;;;;6.88;2.75;;;;;;;;;;5056599;28;20025;-39
2022/04/25 04:39:20;;;;;;;27.30;15.02;;;;;;;;;;5056632;28;20096;-41
2022/04/25 04:41:46;;;;;;;20.08;10.10;;;;;;;;;;5056323;28;20049;-39
2022/04/25 04:44:13;;;;;;;40.70;14.23;;;;;;;;;;5056120;28;20017;-40
2022/04/25 04:46:39;;;;;;;34.67;14.07;;;;;;;;;;5056310;28;20079;-40
2022/04/25 04:49:05;;;;;;;34.53;13.10;;;;;;;;;;5055001;28;20045;-40
2022/04/25 04:51:31;;;;;;;29.48;10.55;;;;;;;;;;5055809;28;20033;-40
2022/04/25 04:54:00;;;;;;;25.02;10.02;;;;;;;;;;5056215;28;20025;-42
2022/04/25 04:56:26;;;;;;;24.67;8.75;;;;;;;;;;5055847;28;20036;-41
2022/04/25 04:58:53;;;;;;;17.63;7.13;;;;;;;;;;5056066;28;20021;-40
2022/04/25 05:01:19;;;;;;;17.48;6.07;;;;;;;;;;5055539;28;20146;-42
2022/04/25 05:03:45;;;;;;;12.52;5.50;;;;;;;;;;5055878;28;20414;-40
2022/04/25 05:06:12;;;;;;;12.55;4.40;;;;;;;;;;5055791;28;20531;-40
2022/04/25 05:08:38;;;;;;;13.00;5.43;;;;;;;;;;5055807;28;20025;-41
2022/04/25 05:11:05;;;;;;;12.93;6.53;;;;;;;;;;5056093;28;20472;-42
2022/04/25 05:13:31;;;;;;;14.52;6.40;;;;;;;;;;5055836;28;20099;-42
2022/04/25 05:15:58;;;;;;;10.90;3.92;;;;;;;;;;5055557;28;20048;-41
2022/04/25 05:18:24;;;;;;;11.15;5.13;;;;;;;;;;5055533;28;20036;-41
2022/04/25 05:20:51;;;;;;;8.13;3.42;;;;;;;;;;5054622;28;20029;-40
2022/04/25 05:23:17;;;;;;;12.63;3.10;;;;;;;;;;5055277;28;20139;-40
2022/04/25 05:25:43;;;;;;;8.35;3.13;;;;;;;;;;5055436;28;20049;-41
2022/04/25 05:28:09;;;;;;;4.70;2.22;;;;;;;;;;5055267;28;20526;-43
2022/04/25 05:30:38;;;;;;;7.88;3.08;;;;;;;;;;5055266;28;20036;-41
2022/04/25 05:33:05;;;;;;;7.50;2.67;;;;;;;;;;5055055;28;20025;-41
2022/04/25 05:35:32;;;;;;;6.93;2.53;;;;;;;;;;5055396;28;20102;-40
2022/04/25 05:37:59;;;;;;;8.95;2.38;;;;;;;;;;5055311;28;20025;-40
2022/04/25 05:40:25;;;;;;;4.70;2.00;;;;;;;;;;5055111;28;20045;-40
2022/04/25 05:42:52;;;;;;;5.28;2.13;;;;;;;;;;5055087;28;20021;-40
2022/04/25 05:45:22;;;;;;;5.32;2.20;;;;;;;;;;5055162;28;20028;-41
2022/04/25 05:47:49;;;;;;;4.68;2.20;;;;;;;;;;5055013;28;20021;-44
2022/04/25 05:53:00;;;;;;;9.13;4.80;;;;;;;;;;5055155;28;20043;-41
2022/04/25 05:55:30;;;;;;;7.22;3.65;;;;;;;;;;5053806;28;20043;-42
2022/04/25 05:57:57;;;;;;;6.30;3.17;;;;;;;;;;5054994;28;20468;-41
2022/04/25 06:00:24;;;;;;;10.55;3.85;;;;;;;;;;5054583;28;20183;-41
2022/04/25 06:02:52;;;;;;;13.52;4.55;;;;;;;;;;5054975;28;20025;-43
2022/04/25 06:05:19;;;;;;;8.90;4.45;;;;;;;;;;5054916;28;20025;-43
2022/04/25 06:07:45;;;;;;;8.77;3.53;;;;;;;;;;5054800;28;20101;-42
2022/04/25 06:10:12;;;;;;;6.35;3.28;;;;;;;;;;5054312;28;20032;-41
2022/04/25 06:12:42;;;;;;;8.43;3.60;;;;;;;;;;5054179;28;20029;-40
2022/04/25 06:15:09;;;;;;;6.40;2.90;;;;;;;;;;5053844;28;20041;-42
2022/04/25 06:17:36;;;;;;;7.32;3.00;;;;;;;;;;5053435;28;20380;-46
2022/04/25 06:20:02;;;;;;;7.70;3.40;;;;;;;;;;5053983;28;20025;-43
2022/04/25 06:22:31;;;;;;;8.68;2.75;;;;;;;;;;5054444;28;20021;-42
2022/04/25 06:24:57;;;;;;;7.05;2.15;;;;;;;;;;5054163;28;20036;-42
2022/04/25 06:27:23;;;;;;;8.65;4.28;;;;;;;;;;5054312;28;20087;-41
2022/04/25 06:29:49;;;;;;;9.30;2.75;;;;;;;;;;5054232;28;20108;-42
2022/04/25 06:32:15;;;;;;;3.17;2.25;;;;;;;;;;5053805;28;20025;-41
2022/04/25 06:34:41;;;;;;;4.97;2.33;;;;;;;;;;5053783;28;20123;-43
2022/04/25 06:37:08;;;;;;;5.75;2.10;;;;;;;;;;5053960;28;20052;-45
2022/04/25 06:39:34;;;;;;;6.65;2.47;;;;;;;;;;5053970;28;20021;-46
2022/04/25 06:42:03;;;;;;;9.68;4.25;;;;;;;;;;5053007;28;20075;-45
2022/04/25 06:44:30;;;;;;;10.18;3.55;;;;;;;;;;5054035;28;20027;-45
2022/04/25 06:46:56;;;;;;;11.50;3.88;;;;;;;;;;5053750;28;20067;-42
2022/04/25 06:49:25;;;;;;;13.52;4.80;;;;;;;;;;5053400;28;20044;-41
2022/04/25 06:51:59;;;;;;;11.23;4.85;;;;;;;;;;5053680;28;20037;-42
2022/04/25 06:54:26;;;;;;;12.73;4.88;;;;;;;;;;5054299;28;20037;-44
2022/04/25 06:56:52;;;;;;;14.23;5.22;;;;;;;;;;5053806;28;20032;-40
2022/04/25 06:59:19;;;;;;;13.65;5.63;;;;;;;;;;5053750;28;20067;-47
2022/04/25 07:01:45;;;;;;;12.30;4.32;;;;;;;;;;5053847;28;20033;-45
2022/04/25 07:04:14;;;;;;;8.95;4.40;;;;;;;;;;5053688;28;20021;-53
2022/04/25 07:06:41;;;;;;;10.32;4.70;;;;;;;;;;5053876;28;20029;-47
2022/04/25 07:09:08;;;;;;;6.93;3.28;;;;;;;;;;5053665;28;20024;-41
2022/04/25 07:11:34;;;;;;;14.77;4.65;;;;;;;;;;5052299;28;20021;-58
2022/04/25 07:14:04;;;;;;;15.30;4.90;;;;;;;;;;5053529;28;20025;-45
2022/04/25 07:16:30;;;;;;;13.77;4.45;;;;;;;;;;5053192;28;20037;-53
2022/04/25 07:18:57;;;;;;;9.73;3.95;;;;;;;;;;5052030;28;20477;-48
2022/04/25 07:29:38;;;;;;;5.80;2.50;;;;;;;;;;5053541;28;20114;-46
2022/04/25 07:32:04;;;;;;;8.05;2.10;;;;;;;;;;5053523;28;20029;-41
2022/04/25 07:34:30;;;;;;;2.03;0.80;;;;;;;;;;5053167;28;20029;-42
2022/04/25 07:36:58;;;;;;;3.20;1.20;;;;;;;;;;5053078;28;20075;-42
2022/04/25 07:39:24;;;;;;;3.75;0.80;;;;;;;;;;5053314;28;20091;-39
2022/04/25 07:41:51;;;;;;;17.40;11.43;;;;;;;;;;5053205;28;20113;-41
2022/04/25 07:44:17;;;;;;;10.30;5.57;;;;;;;;;;5053241;28;20116;-40
2022/04/25 07:46:45;;;;;;;18.08;10.38;;;;;;;;;;5053095;28;20021;-41
2022/04/25 07:49:12;;;;;;;16.77;9.80;;;;;;;;;;5053014;28;20083;-41
2022/04/25 07:51:40;;;;;;;4.30;2.00;;;;;;;;;;5053352;28;20099;-42
2022/04/25 07:54:06;;;;;;;4.45;2.05;;;;;;;;;;5052974;28;20108;-42
2022/04/25 07:56:33;;;;;;;2.45;1.50;;;;;;;;;;5051990;28;20496;-40
2022/04/25 07:59:02;;;;;;;8.45;4.85;;;;;;;;;;5052965;28;20507;-40
2022/04/25 08:01:29;;;;;;;5.03;2.00;;;;;;;;;;5051614;28;20025;-41
2022/04/25 08:03:55;;;;;;;10.15;5.30;;;;;;;;;;5052982;28;20086;-43
2022/04/25 08:06:22;;;;;;;5.05;1.50;;;;;;;;;;5053023;28;20028;-46
2022/04/25 08:08:49;;;;;;;5.03;3.30;;;;;;;;;;5052864;28;20017;-42
2022/04/25 08:11:15;;;;;;;4.30;2.45;;;;;;;;;;5050490;28;20147;-41
2022/04/25 08:19:10;;;;;;;5.50;2.22;;;;;;;;;;5052670;28;20032;-42
2022/04/25 08:21:39;;;;;;;5.82;2.67;;;;;;;;;;5052903;28;20037;-42
2022/04/25 08:24:06;;;;;;;5.97;1.60;;;;;;;;;;5052644;28;20029;-41
2022/04/25 08:26:32;;;;;;;3.05;1.40;;;;;;;;;;5052671;28;20496;-41
2022/04/25 08:29:00;;;;;;;1.90;1.23;;;;;;;;;;5052673;28;20108;-41
2022/04/25 08:31:27;;;;;;;2.75;1.25;;;;;;;;;;5052320;28;20029;-44
2022/04/25 08:33:54;;;;;;;2.78;1.10;;;;;;;;;;5052457;28;20021;-42
2022/04/25 08:36:20;;;;;;;4.57;2.33;;;;;;;;;;5053134;28;20037;-45
2022/04/25 08:38:46;;;;;;;5.95;3.00;;;;;;;;;;5056240;28;20032;-43
2022/04/25 08:41:20;;;;;;;1.30;1.08;;;;;;;;;;5055974;28;20021;-42
2022/04/25 08:43:51;;;;;;;2.45;1.48;;;;;;;;;;5056498;28;20025;-42
2022/04/25 08:46:17;;;;;;;4.45;1.70;;;;;;;;;;5056039;28;20035;-43
2022/04/25 08:48:44;;;;;;;4.70;1.52;;;;;;;;;;5054479;28;20024;-42
2022/04/25 08:51:11;;;;;;;2.58;1.40;;;;;;;;;;5055830;28;20033;-41
2022/04/25 08:53:40;;;;;;;4.07;1.13;;;;;;;;;;5055877;28;20029;-43
2022/04/25 08:56:10;;;;;;;5.68;3.47;;;;;;;;;;5054481;28;20045;-43
2022/04/25 08:58:42;;;;;;;5.32;3.53;;;;;;;;;;5055829;28;20025;-42
2022/04/25 09:01:12;;;;;;;2.63;1.13;;;;;;;;;;5055647;28;20028;-41
2022/04/25 09:03:38;;;;;;;5.07;1.52;;;;;;;;;;5055944;28;20025;-41
2022/04/25 09:06:08;;;;;;;2.30;1.52;;;;;;;;;;5055880;28;20029;-43
2022/04/25 09:08:34;;;;;;;9.13;3.00;;;;;;;;;;5055876;28;20040;-43
2022/04/25 09:13:46;;;;;;;5.38;2.30;;;;;;;;;;5055826;28;20036;-44
2022/04/25 09:16:15;;;;;;;6.00;1.48;;;;;;;;;;5055584;28;20073;-42
2022/04/25 09:18:42;;;;;;;2.33;1.05;;;;;;;;;;5055568;28;20057;-42
2022/04/25 09:21:08;;;;;;;12.48;5.13;;;;;;;;;;5055699;28;20037;-42
2022/04/25 09:23:34;;;;;;;4.50;2.10;;;;;;;;;;5055571;28;20029;-42
2022/04/25 09:26:15;;;;;;;4.28;2.15;;;;;;;;;;5055667;28;20052;-42
2022/04/25 09:28:54;;;;;;;5.28;1.67;;;;;;;;;;5055606;28;20032;-42
2022/04/25 09:31:27;;;;;;;3.75;1.75;;;;;;;;;;5055320;28;20100;-44
2022/04/25 09:33:54;;;;;;;2.03;1.33;;;;;;;;;;5055406;28;20024;-41
2022/04/25 09:36:23;;;;;;;2.75;1.83;;;;;;;;;;5055030;28;20481;-42
2022/04/25 09:38:49;;;;;;;5.35;2.95;;;;;;;;;;5055263;28;20032;-43
2022/04/25 09:41:16;;;;;;;6.10;3.50;;;;;;;;;;5054761;28;20519;-41
2022/04/25 09:43:44;;;;;;;20.42;11.95;;;;;;;;;;5055071;28;20027;-41
2022/04/25 09:46:14;;;;;;;3.25;2.20;;;;;;;;;;5054600;28;20473;-42
2022/04/25 09:49:01;;;;;;;3.03;1.80;;;;;;;;;;5053754;28;20070;-41
2022/04/25 09:51:27;;;;;;;7.30;3.20;;;;;;;;;;5055090;28;20366;-41
2022/04/25 09:53:54;;;;;;;2.45;1.48;;;;;;;;;;5053831;28;20032;-42
2022/04/25 09:56:21;;;;;;;4.85;2.00;;;;;;;;;;5050931;28;20124;-42
2022/04/25 09:59:06;;;;;;;8.15;2.15;;;;;;;;;;5053904;28;20024;-41
2022/04/25 10:01:34;;;;;;;3.13;1.60;;;;;;;;;;5052780;28;20108;-41
2022/04/25 10:04:01;;;;;;;8.23;4.22;;;;;;;;;;5054683;28;20017;-41
2022/04/25 10:06:32;;;;;;;2.83;1.75;;;;;;;;;;5053960;28;20388;-41
2022/04/25 10:09:00;;;;;;;2.10;1.42;;;;;;;;;;5053842;28;20021;-42
2022/04/25 10:11:32;;;;;;;2.75;1.15;;;;;;;;;;5053923;28;20507;-40
2022/04/25 10:13:58;;;;;;;5.65;1.27;;;;;;;;;;5053917;28;20032;-41
2022/04/25 10:16:25;;;;;;;3.53;0.90;;;;;;;;;;5053707;28;20548;-41
2022/04/25 10:18:53;;;;;;;18.08;9.57;;;;;;;;;;5053663;28;20423;-41
2022/04/25 10:21:20;;;;;;;7.43;4.07;;;;;;;;;;5053982;28;20037;-41
2022/04/25 10:23:46;;;;;;;7.00;4.32;;;;;;;;;;5053688;28;20072;-41
2022/04/25 10:26:12;;;;;;;7.43;2.90;;;;;;;;;;5053673;28;20428;-41
2022/04/25 10:28:48;;;;;;;10.90;5.50;;;;;;;;;;5026533;28;20118;-41
2022/04/25 10:31:20;;;;;;;4.38;2.08;;;;;;;;;;5023092;28;20026;-41
2022/04/25 10:33:48;;;;;;;3.65;1.80;;;;;;;;;;5021356;28;20692;-42
2022/04/25 10:36:33;;;;;;;2.33;0.82;;;;;;;;;;5021646;28;20106;-41
2022/04/25 10:39:11;;;;;;;3.70;1.20;;;;;;;;;;5021799;28;20171;-41
2022/04/25 10:44:22;;;;;;;3.80;1.85;;;;;;;;;;5021592;28;20295;-41
2022/04/25 10:47:07;;;;;;;3.88;1.50;;;;;;;;;;5021474;28;20025;-41
2022/04/25 10:49:37;;;;;;;3.45;1.38;;;;;;;;;;5021111;28;20253;-41
2022/04/25 10:52:04;;;;;;;3.53;1.20;;;;;;;;;;5022295;28;20025;-41
2022/04/25 10:54:49;;;;;;;3.42;1.35;;;;;;;;;;5021016;28;20460;-41
2022/04/25 10:57:16;;;;;;;2.03;1.13;;;;;;;;;;5021082;28;20469;-43
2022/04/25 10:59:42;;;;;;;1.75;1.00;;;;;;;;;;5020755;28;20033;-41
2022/04/25 11:02:25;;;;;;;7.78;3.25;;;;;;;;;;5021232;28;20692;-40
2022/04/25 11:05:10;;;;;;;2.42;1.88;;;;;;;;;;5020676;28;20083;-41
2022/04/25 11:07:37;;;;;;;2.13;1.10;;;;;;;;;;5020680;28;20021;-42
2022/04/25 11:10:04;;;;;;;2.03;1.13;;;;;;;;;;5020924;28;20026;-41
2022/04/25 11:12:48;;;;;;;5.40;1.38;;;;;;;;;;5020538;28;20370;-41
2022/04/25 11:15:35;;;;;;;3.53;1.50;;;;;;;;;;5021199;28;20038;-42
2022/04/25 11:18:20;;;;;;;3.05;1.70;;;;;;;;;;5021614;28;20029;-39
2022/04/25 11:20:59;;;;;;;1.75;1.40;;;;;;;;;;5031474;28;20571;-41
2022/04/25 11:23:28;;;;;;;5.22;1.90;;;;;;;;;;5021927;28;20029;-41
2022/04/25 11:25:55;;;;;;;4.97;1.50;;;;;;;;;;5022247;28;20040;-42
2022/04/25 11:28:22;;;;;;;3.13;0.90;;;;;;;;;;5021010;28;20407;-40
2022/04/25 11:31:07;;;;;;;3.65;2.33;;;;;;;;;;5020993;28;20021;-40
2022/04/25 11:33:46;;;;;;;4.72;1.60;;;;;;;;;;5020692;28;20025;-42
2022/04/25 11:36:13;;;;;;;2.85;2.00;;;;;;;;;;5020661;28;20063;-41
2022/04/25 11:41:24;;;;;;;9.38;5.57;;;;;;;;;;5020962;28;20036;-41
2022/04/25 11:43:52;;;;;;;3.92;2.13;;;;;;;;;;5020928;28;20853;-42
2022/04/25 11:46:19;;;;;;;11.15;5.88;;;;;;;;;;5021461;28;20030;-41
2022/04/25 11:48:49;;;;;;;3.75;2.45;;;;;;;;;;5020465;28;20464;-41
2022/04/25 11:51:24;;;;;;;2.22;1.30;;;;;;;;;;5020701;28;20045;-42
2022/04/25 11:53:59;;;;;;;3.08;1.40;;;;;;;;;;5021772;28;20426;-41
2022/04/25 11:56:26;;;;;;;5.30;1.20;;;;;;;;;;5020495;28;20385;-43
2022/04/25 11:58:53;;;;;;;3.83;2.20;;;;;;;;;;5021795;28;20032;-42
2022/04/25 12:01:38;;;;;;;1.88;1.00;;;;;;;;;;5020746;28;20018;-40
2022/04/25 12:04:17;;;;;;;3.08;1.48;;;;;;;;;;5020847;28;20407;-41
2022/04/25 12:06:48;;;;;;;1.40;0.68;;;;;;;;;;5021699;28;20029;-39
2022/04/25 12:17:38;;;;;;;2.20;1.17;;;;;;;;;;5024041;28;20067;-41
2022/04/25 12:20:05;;;;;;;2.25;1.30;;;;;;;;;;5025357;28;20611;-39
2022/04/25 12:22:32;;;;;;;3.97;1.10;;;;;;;;;;5024508;28;20029;-42
2022/04/25 12:25:14;;;;;;;3.10;1.27;;;;;;;;;;5024645;28;20056;-42
2022/04/25 12:27:41;;;;;;;4.45;1.00;;;;;;;;;;5024652;28;20569;-39
2022/04/25 12:30:09;;;;;;;5.70;1.95;;;;;;;;;;5024676;28;20500;-40
2022/04/25 12:32:35;;;;;;;11.23;7.22;;;;;;;;;;5024963;28;20033;-40
2022/04/25 12:35:01;;;;;;;22.48;15.25;;;;;;;;;;5024517;28;20419;-41
2022/04/25 12:37:30;;;;;;;13.55;7.75;;;;;;;;;;5024452;28;20114;-41
2022/04/25 12:40:05;;;;;;;9.18;6.35;;;;;;;;;;5024161;28;20060;-40
2022/04/25 12:42:44;;;;;;;4.30;2.47;;;;;;;;;;5024548;28;20029;-42
2022/04/25 12:45:10;;;;;;;7.13;3.78;;;;;;;;;;5024340;28;20133;-43
2022/04/25 12:47:36;;;;;;;8.38;5.50;;;;;;;;;;5024806;28;20021;-47
2022/04/25 12:50:03;;;;;;;9.23;5.65;;;;;;;;;;5023777;28;20052;-40
2022/04/25 12:52:45;;;;;;;6.38;3.58;;;;;;;;;;5024467;28;20128;-39
2022/04/25 12:55:11;;;;;;;11.60;7.72;;;;;;;;;;5024139;28;20371;-41
2022/04/25 12:57:38;;;;;;;2.58;1.80;;;;;;;;;;5023380;28;20028;-42
2022/04/25 13:00:04;;;;;;;13.63;8.35;;;;;;;;;;5025490;28;20025;-42
2022/04/25 13:02:35;;;;;;;6.85;2.75;;;;;;;;;;5023822;28;20056;-45
2022/04/25 13:05:05;;;;;;;53.42;32.08;;;;;;;;;;5023463;28;20543;-46
2022/04/25 13:07:33;;;;;;;70.72;39.22;;;;;;;;;;5023865;28;20033;-44
2022/04/25 13:10:01;;;;;;;25.55;15.70;;;;;;;;;;5023684;28;20100;-43
2022/04/25 13:12:37;;;;;;;25.02;15.57;;;;;;;;;;5024750;28;20021;-43
2022/04/25 13:15:07;;;;;;;12.95;8.55;;;;;;;;;;5023587;28;20033;-44
2022/04/25 13:17:36;;;;;;;4.85;3.15;;;;;;;;;;5024413;28;20140;-47
2022/04/25 13:20:03;;;;;;;33.42;19.23;;;;;;;;;;5023726;28;20036;-47
2022/04/25 13:22:29;;;;;;;9.90;5.60;;;;;;;;;;5023685;28;20809;-43
2022/04/25 13:24:57;;;;;;;37.30;19.60;;;;;;;;;;5023592;28;20049;-47
2022/04/25 13:27:23;;;;;;;5.40;2.38;;;;;;;;;;5024885;28;20390;-42
2022/04/25 13:29:50;;;;;;;8.98;5.05;;;;;;;;;;5023403;28;20100;-42
2022/04/25 13:32:16;;;;;;;9.85;5.88;;;;;;;;;;5024617;28;20369;-42
2022/04/25 13:34:43;;;;;;;5.70;3.55;;;;;;;;;;5023619;28;20033;-43
2022/04/25 13:37:10;;;;;;;58.50;37.25;;;;;;;;;;5023320;28;20802;-43
2022/04/25 13:39:37;;;;;;;27.23;17.23;;;;;;;;;;5023746;28;20053;-43
2022/04/25 13:42:03;;;;;;;18.52;9.27;;;;;;;;;;5023369;28;20025;-44
2022/04/25 13:44:29;;;;;;;18.38;9.68;;;;;;;;;;5022958;28;20507;-47
2022/04/25 13:46:56;;;;;;;52.85;30.70;;;;;;;;;;5024107;28;20033;-43
2022/04/25 13:49:22;;;;;;;28.80;17.90;;;;;;;;;;5024517;28;20041;-41
2022/04/25 13:51:48;;;;;;;48.38;31.00;;;;;;;;;;5022754;28;20029;-43
2022/04/25 13:54:14;;;;;;;7.85;4.93;;;;;;;;;;5023340;28;20120;-45
2022/04/25 13:56:43;;;;;;;2.05;1.50;;;;;;;;;;5022589;28;20033;-54
2022/04/25 13:59:13;;;;;;;4.60;2.25;;;;;;;;;;5022525;28;20124;-53
2022/04/25 14:01:39;;;;;;;3.83;2.08;;;;;;;;;;5023125;28;20036;-49
2022/04/25 14:04:05;;;;;;;6.20;2.95;;;;;;;;;;5022787;28;20026;-50
2022/04/25 14:06:32;;;;;;;3.72;1.58;;;;;;;;;;5022428;28;20158;-42
2022/04/25 14:08:58;;;;;;;4.00;1.73;;;;;;;;;;5022532;28;20647;-42
2022/04/25 14:11:29;;;;;;;3.75;1.88;;;;;;;;;;5022806;28;20036;-43
2022/04/25 14:13:56;;;;;;;3.63;1.10;;;;;;;;;;5022295;28;20029;-44
2022/04/25 14:16:22;;;;;;;5.43;1.17;;;;;;;;;;5022324;28;20040;-44
2022/04/25 14:18:48;;;;;;;5.65;2.10;;;;;;;;;;5021947;28;20128;-43
2022/04/25 14:21:14;;;;;;;7.22;3.63;;;;;;;;;;5023640;28;20464;-43
2022/04/25 14:23:40;;;;;;;6.28;3.05;;;;;;;;;;5022517;28;20036;-43
2022/04/25 14:26:07;;;;;;;12.73;7.13;;;;;;;;;;5022610;28;20024;-43
2022/04/25 14:28:34;;;;;;;5.88;2.63;;;;;;;;;;5022369;28;20048;-46
2022/04/25 14:31:00;;;;;;;3.88;1.50;;;;;;;;;;5023555;28;20025;-47
2022/04/25 14:33:26;;;;;;;2.85;1.73;;;;;;;;;;5022061;28;20026;-43
2022/04/25 14:35:53;;;;;;;6.45;4.43;;;;;;;;;;5021196;28;20041;-44
2022/04/25 14:38:22;;;;;;;134.13;84.70;;;;;;;;;;5022057;28;20534;-43
2022/04/25 14:40:56;;;;;;;118.38;73.78;;;;;;;;;;5022539;28;20525;-43
2022/04/25 14:43:25;;;;;;;88.00;54.53;;;;;;;;;;5021957;28;20022;-43
2022/04/25 14:45:55;;;;;;;45.85;28.50;;;;;;;;;;5022140;28;20022;-42
2022/04/25 14:48:21;;;;;;;11.73;6.97;;;;;;;;;;5023479;28;20128;-42
2022/04/25 14:56:17;;;;;;;34.80;22.38;;;;;;;;;;5032567;28;20105;-41
2022/04/25 14:58:43;;;;;;;10.45;5.80;;;;;;;;;;5027837;28;20025;-42
2022/04/25 15:01:09;;;;;;;25.95;16.45;;;;;;;;;;5028148;28;20035;-42
2022/04/25 15:03:38;;;;;;;62.65;38.20;;;;;;;;;;5027446;28;20060;-42
2022/04/25 15:06:04;;;;;;;42.40;28.17;;;;;;;;;;5027702;28;20079;-43
2022/04/25 15:08:30;;;;;;;16.48;9.90;;;;;;;;;;5026819;28;20024;-43
2022/04/25 15:10:56;;;;;;;4.72;2.33;;;;;;;;;;5027369;28;20563;-42
2022/04/25 15:13:22;;;;;;;2.42;1.40;;;;;;;;;;5029816;28;20341;-42
2022/04/25 15:15:48;;;;;;;3.80;1.60;;;;;;;;;;5028123;28;20084;-43
2022/04/25 15:18:14;;;;;;;3.80;1.60;;;;;;;;;;5025711;28;20018;-43
2022/04/25 15:20:40;;;;;;;4.30;2.00;;;;;;;;;;5026054;28;20573;-43
2022/04/25 15:23:07;;;;;;;6.43;1.85;;;;;;;;;;5027077;28;20454;-43
2022/04/25 15:25:34;;;;;;;2.60;1.88;;;;;;;;;;5021605;28;20021;-43